sensor_id;sensor_type;location;lat;lon;timestamp;P1;durP1;ratioP1;P2;durP2;ratioP2
70122;SDS011;57489;37.404;24.920;2023-02-18T00:00:29;7.23;;;2.90;;
70122;SDS011;57489;37.404;24.920;2023-02-18T00:05:30;6.57;;;3.47;;
70122;SDS011;57489;37.404;24.920;2023-02-18T00:10:30;5.97;;;3.13;;
70122;SDS011;57489;37.404;24.920;2023-02-18T00:15:31;6.37;;;3.17;;
70122;SDS011;57489;37.404;24.920;2023-02-18T00:20:33;7.95;;;3.25;;
70122;SDS011;57489;37.404;24.920;2023-02-18T00:25:34;6.27;;;3.00;;
70122;SDS011;57489;37.404;24.920;2023-02-18T00:30:38;6.00;;;2.90;;
70122;SDS011;57489;37.404;24.920;2023-02-18T00:35:40;6.03;;;2.90;;
70122;SDS011;57489;37.404;24.920;2023-02-18T00:40:40;9.23;;;3.33;;
70122;SDS011;57489;37.404;24.920;2023-02-18T00:45:40;7.97;;;3.03;;
70122;SDS011;57489;37.404;24.920;2023-02-18T00:50:41;6.57;;;2.70;;
70122;SDS011;57489;37.404;24.920;2023-02-18T00:55:42;6.10;;;3.00;;
70122;SDS011;57489;37.404;24.920;2023-02-18T01:00:43;6.20;;;2.85;;
70122;SDS011;57489;37.404;24.920;2023-02-18T01:05:44;7.07;;;3.43;;
70122;SDS011;57489;37.404;24.920;2023-02-18T01:10:45;7.67;;;3.30;;
70122;SDS011;57489;37.404;24.920;2023-02-18T01:15:47;7.57;;;3.40;;
70122;SDS011;57489;37.404;24.920;2023-02-18T01:20:47;7.13;;;3.13;;
70122;SDS011;57489;37.404;24.920;2023-02-18T01:25:48;6.83;;;3.13;;
70122;SDS011;57489;37.404;24.920;2023-02-18T01:30:48;6.27;;;3.00;;
70122;SDS011;57489;37.404;24.920;2023-02-18T01:35:51;5.30;;;2.50;;
70122;SDS011;57489;37.404;24.920;2023-02-18T01:40:52;7.03;;;3.10;;
70122;SDS011;57489;37.404;24.920;2023-02-18T01:56:38;5.85;;;2.63;;
70122;SDS011;57489;37.404;24.920;2023-02-18T02:01:42;6.63;;;2.85;;
70122;SDS011;57489;37.404;24.920;2023-02-18T02:06:44;6.30;;;2.80;;
70122;SDS011;57489;37.404;24.920;2023-02-18T02:11:49;6.63;;;3.13;;
70122;SDS011;57489;37.404;24.920;2023-02-18T02:16:56;7.15;;;3.50;;
70122;SDS011;57489;37.404;24.920;2023-02-18T02:49:44;6.20;;;2.78;;
70122;SDS011;57489;37.404;24.920;2023-02-18T02:54:47;6.97;;;3.30;;
70122;SDS011;57489;37.404;24.920;2023-02-18T02:59:51;6.80;;;3.27;;
70122;SDS011;57489;37.404;24.920;2023-02-18T03:10:24;7.80;;;3.47;;
70122;SDS011;57489;37.404;24.920;2023-02-18T03:15:49;6.70;;;3.08;;
70122;SDS011;57489;37.404;24.920;2023-02-18T03:20:56;6.47;;;3.03;;
70122;SDS011;57489;37.404;24.920;2023-02-18T03:26:03;6.10;;;2.70;;
70122;SDS011;57489;37.404;24.920;2023-02-18T03:31:06;6.75;;;3.40;;
70122;SDS011;57489;37.404;24.920;2023-02-18T03:36:09;7.27;;;3.37;;
70122;SDS011;57489;37.404;24.920;2023-02-18T03:41:10;7.13;;;3.50;;
70122;SDS011;57489;37.404;24.920;2023-02-18T03:46:11;7.43;;;3.07;;
70122;SDS011;57489;37.404;24.920;2023-02-18T03:51:11;5.47;;;2.63;;
70122;SDS011;57489;37.404;24.920;2023-02-18T03:56:12;6.85;;;2.70;;
70122;SDS011;57489;37.404;24.920;2023-02-18T04:01:12;5.90;;;2.57;;
70122;SDS011;57489;37.404;24.920;2023-02-18T04:06:13;5.43;;;2.63;;
70122;SDS011;57489;37.404;24.920;2023-02-18T04:11:13;6.17;;;2.80;;
70122;SDS011;57489;37.404;24.920;2023-02-18T04:16:14;7.33;;;3.07;;
70122;SDS011;57489;37.404;24.920;2023-02-18T04:21:14;8.27;;;3.47;;
70122;SDS011;57489;37.404;24.920;2023-02-18T04:26:15;6.23;;;3.07;;
70122;SDS011;57489;37.404;24.920;2023-02-18T04:31:15;6.73;;;2.97;;
70122;SDS011;57489;37.404;24.920;2023-02-18T04:36:15;5.97;;;2.67;;
70122;SDS011;57489;37.404;24.920;2023-02-18T04:41:16;6.07;;;2.77;;
70122;SDS011;57489;37.404;24.920;2023-02-18T04:46:16;5.83;;;2.77;;
70122;SDS011;57489;37.404;24.920;2023-02-18T04:51:17;8.43;;;3.17;;
70122;SDS011;57489;37.404;24.920;2023-02-18T04:56:17;6.43;;;2.70;;
70122;SDS011;57489;37.404;24.920;2023-02-18T05:01:18;6.10;;;2.90;;
70122;SDS011;57489;37.404;24.920;2023-02-18T05:06:18;5.63;;;2.63;;
70122;SDS011;57489;37.404;24.920;2023-02-18T05:11:19;6.50;;;2.83;;
70122;SDS011;57489;37.404;24.920;2023-02-18T05:16:19;5.87;;;2.83;;
70122;SDS011;57489;37.404;24.920;2023-02-18T05:21:20;4.83;;;2.37;;
70122;SDS011;57489;37.404;24.920;2023-02-18T05:26:20;6.47;;;2.47;;
70122;SDS011;57489;37.404;24.920;2023-02-18T05:31:21;4.70;;;2.23;;
70122;SDS011;57489;37.404;24.920;2023-02-18T05:36:21;5.27;;;2.67;;
70122;SDS011;57489;37.404;24.920;2023-02-18T05:41:21;4.97;;;2.23;;
70122;SDS011;57489;37.404;24.920;2023-02-18T05:46:22;5.53;;;2.77;;
70122;SDS011;57489;37.404;24.920;2023-02-18T05:51:22;9.03;;;2.97;;
70122;SDS011;57489;37.404;24.920;2023-02-18T05:56:23;4.82;;;2.28;;
70122;SDS011;57489;37.404;24.920;2023-02-18T06:01:23;6.00;;;2.60;;
70122;SDS011;57489;37.404;24.920;2023-02-18T06:06:24;6.03;;;2.63;;
70122;SDS011;57489;37.404;24.920;2023-02-18T06:11:24;5.90;;;2.20;;
70122;SDS011;57489;37.404;24.920;2023-02-18T06:16:25;5.97;;;2.27;;
70122;SDS011;57489;37.404;24.920;2023-02-18T06:21:26;6.13;;;2.35;;
70122;SDS011;57489;37.404;24.920;2023-02-18T06:26:26;7.07;;;2.90;;
70122;SDS011;57489;37.404;24.920;2023-02-18T06:31:27;6.67;;;3.10;;
70122;SDS011;57489;37.404;24.920;2023-02-18T06:36:27;5.57;;;2.43;;
70122;SDS011;57489;37.404;24.920;2023-02-18T06:41:28;5.57;;;2.77;;
70122;SDS011;57489;37.404;24.920;2023-02-18T06:46:28;7.70;;;2.60;;
70122;SDS011;57489;37.404;24.920;2023-02-18T06:51:28;5.93;;;2.80;;
70122;SDS011;57489;37.404;24.920;2023-02-18T06:56:29;10.93;;;2.80;;
70122;SDS011;57489;37.404;24.920;2023-02-18T07:01:29;5.83;;;2.93;;
70122;SDS011;57489;37.404;24.920;2023-02-18T07:06:30;5.30;;;2.50;;
70122;SDS011;57489;37.404;24.920;2023-02-18T07:11:30;9.53;;;2.93;;
70122;SDS011;57489;37.404;24.920;2023-02-18T07:16:31;6.10;;;2.90;;
70122;SDS011;57489;37.404;24.920;2023-02-18T07:21:31;7.07;;;3.40;;
70122;SDS011;57489;37.404;24.920;2023-02-18T07:26:32;12.87;;;3.47;;
70122;SDS011;57489;37.404;24.920;2023-02-18T07:31:35;10.03;;;3.37;;
70122;SDS011;57489;37.404;24.920;2023-02-18T07:36:35;13.10;;;3.40;;
70122;SDS011;57489;37.404;24.920;2023-02-18T07:41:36;7.80;;;3.20;;
70122;SDS011;57489;37.404;24.920;2023-02-18T07:46:40;11.07;;;4.33;;
70122;SDS011;57489;37.404;24.920;2023-02-18T07:51:41;8.88;;;3.80;;
70122;SDS011;57489;37.404;24.920;2023-02-18T07:56:41;9.30;;;3.60;;
70122;SDS011;57489;37.404;24.920;2023-02-18T08:01:42;11.37;;;3.43;;
70122;SDS011;57489;37.404;24.920;2023-02-18T08:06:43;9.80;;;3.67;;
70122;SDS011;57489;37.404;24.920;2023-02-18T08:11:46;9.13;;;3.97;;
70122;SDS011;57489;37.404;24.920;2023-02-18T08:16:46;9.93;;;4.27;;
70122;SDS011;57489;37.404;24.920;2023-02-18T08:21:47;13.23;;;5.50;;
70122;SDS011;57489;37.404;24.920;2023-02-18T08:26:47;11.60;;;4.70;;
70122;SDS011;57489;37.404;24.920;2023-02-18T08:31:47;9.37;;;4.83;;
70122;SDS011;57489;37.404;24.920;2023-02-18T08:36:48;9.73;;;5.53;;
70122;SDS011;57489;37.404;24.920;2023-02-18T08:41:48;11.00;;;5.30;;
70122;SDS011;57489;37.404;24.920;2023-02-18T08:46:49;11.13;;;5.50;;
70122;SDS011;57489;37.404;24.920;2023-02-18T08:51:49;12.40;;;5.50;;
70122;SDS011;57489;37.404;24.920;2023-02-18T08:56:52;13.27;;;6.03;;
70122;SDS011;57489;37.404;24.920;2023-02-18T09:01:54;14.68;;;5.53;;
70122;SDS011;57489;37.404;24.920;2023-02-18T09:06:54;12.53;;;5.50;;
70122;SDS011;57489;37.404;24.920;2023-02-18T09:11:55;11.83;;;5.63;;
70122;SDS011;57489;37.404;24.920;2023-02-18T09:16:55;12.60;;;5.67;;
70122;SDS011;57489;37.404;24.920;2023-02-18T09:21:57;10.85;;;5.22;;
70122;SDS011;57489;37.404;24.920;2023-02-18T09:26:57;8.63;;;5.00;;
70122;SDS011;57489;37.404;24.920;2023-02-18T09:32:01;9.63;;;5.77;;
70122;SDS011;57489;37.404;24.920;2023-02-18T09:37:02;10.77;;;5.10;;
70122;SDS011;57489;37.404;24.920;2023-02-18T09:42:04;11.20;;;5.43;;
70122;SDS011;57489;37.404;24.920;2023-02-18T09:52:25;14.65;;;8.77;;
70122;SDS011;57489;37.404;24.920;2023-02-18T09:57:39;13.80;;;9.70;;
70122;SDS011;57489;37.404;24.920;2023-02-18T10:02:53;14.07;;;11.53;;
70122;SDS011;57489;37.404;24.920;2023-02-18T10:07:55;19.35;;;12.52;;
70122;SDS011;57489;37.404;24.920;2023-02-18T10:13:00;19.23;;;12.13;;
70122;SDS011;57489;37.404;24.920;2023-02-18T10:18:01;18.03;;;11.23;;
70122;SDS011;57489;37.404;24.920;2023-02-18T10:23:02;17.97;;;11.43;;
70122;SDS011;57489;37.404;24.920;2023-02-18T10:28:03;17.53;;;11.43;;
70122;SDS011;57489;37.404;24.920;2023-02-18T10:33:49;21.47;;;10.43;;
70122;SDS011;57489;37.404;24.920;2023-02-18T10:44:04;16.37;;;10.40;;
70122;SDS011;57489;37.404;24.920;2023-02-18T10:49:27;16.67;;;10.63;;
70122;SDS011;57489;37.404;24.920;2023-02-18T10:54:59;18.55;;;10.13;;
70122;SDS011;57489;37.404;24.920;2023-02-18T11:00:37;17.38;;;9.25;;
70122;SDS011;57489;37.404;24.920;2023-02-18T11:05:34;16.03;;;8.60;;
70122;SDS011;57489;37.404;24.920;2023-02-18T11:10:37;14.70;;;9.25;;
70122;SDS011;57489;37.404;24.920;2023-02-18T11:16:00;17.70;;;7.95;;
70122;SDS011;57489;37.404;24.920;2023-02-18T11:21:05;13.73;;;8.30;;
70122;SDS011;57489;37.404;24.920;2023-02-18T11:26:23;15.95;;;9.10;;
70122;SDS011;57489;37.404;24.920;2023-02-18T11:31:43;18.83;;;9.30;;
70122;SDS011;57489;37.404;24.920;2023-02-18T11:36:45;14.10;;;8.10;;
70122;SDS011;57489;37.404;24.920;2023-02-18T11:41:54;11.20;;;7.87;;
70122;SDS011;57489;37.404;24.920;2023-02-18T11:46:58;14.25;;;8.60;;
70122;SDS011;57489;37.404;24.920;2023-02-18T11:52:23;12.27;;;7.80;;
70122;SDS011;57489;37.404;24.920;2023-02-18T11:57:26;12.27;;;7.40;;
70122;SDS011;57489;37.404;24.920;2023-02-18T12:02:32;13.63;;;7.60;;
70122;SDS011;57489;37.404;24.920;2023-02-18T12:07:48;12.65;;;7.45;;
70122;SDS011;57489;37.404;24.920;2023-02-18T12:18:08;14.23;;;6.85;;
70122;SDS011;57489;37.404;24.920;2023-02-18T12:24:02;11.93;;;6.75;;
70122;SDS011;57489;37.404;24.920;2023-02-18T12:34:34;12.43;;;7.37;;
70122;SDS011;57489;37.404;24.920;2023-02-18T12:45:30;11.18;;;6.35;;
70122;SDS011;57489;37.404;24.920;2023-02-18T13:06:46;28.70;;;6.80;;
70122;SDS011;57489;37.404;24.920;2023-02-18T13:12:07;14.32;;;6.90;;
70122;SDS011;57489;37.404;24.920;2023-02-18T13:17:29;10.88;;;5.78;;
70122;SDS011;57489;37.404;24.920;2023-02-18T13:22:34;14.53;;;6.73;;
70122;SDS011;57489;37.404;24.920;2023-02-18T13:27:37;12.77;;;6.47;;
70122;SDS011;57489;37.404;24.920;2023-02-18T13:38:02;13.20;;;6.83;;
70122;SDS011;57489;37.404;24.920;2023-02-18T13:48:26;10.97;;;5.03;;
70122;SDS011;57489;37.404;24.920;2023-02-18T13:53:28;8.88;;;5.57;;
70122;SDS011;57489;37.404;24.920;2023-02-18T13:58:50;13.70;;;5.57;;
70122;SDS011;57489;37.404;24.920;2023-02-18T14:03:54;8.57;;;4.60;;
70122;SDS011;57489;37.404;24.920;2023-02-18T14:19:28;15.20;;;5.40;;
70122;SDS011;57489;37.404;24.920;2023-02-18T14:24:48;16.75;;;4.97;;
70122;SDS011;57489;37.404;24.920;2023-02-18T14:29:54;12.20;;;5.97;;
70122;SDS011;57489;37.404;24.920;2023-02-18T14:40:24;16.83;;;7.13;;
70122;SDS011;57489;37.404;24.920;2023-02-18T14:50:45;28.95;;;8.45;;
70122;SDS011;57489;37.404;24.920;2023-02-18T14:55:48;19.17;;;7.23;;
70122;SDS011;57489;37.404;24.920;2023-02-18T15:00:50;23.27;;;6.68;;
70122;SDS011;57489;37.404;24.920;2023-02-18T15:05:51;17.23;;;7.07;;
70122;SDS011;57489;37.404;24.920;2023-02-18T15:16:07;15.10;;;6.53;;
70122;SDS011;57489;37.404;24.920;2023-02-18T15:21:35;12.95;;;5.72;;
70122;SDS011;57489;37.404;24.920;2023-02-18T15:26:41;12.17;;;6.20;;
70122;SDS011;57489;37.404;24.920;2023-02-18T15:31:45;18.83;;;7.15;;
70122;SDS011;57489;37.404;24.920;2023-02-18T15:36:51;16.10;;;6.50;;
70122;SDS011;57489;37.404;24.920;2023-02-18T15:41:52;14.63;;;5.87;;
70122;SDS011;57489;37.404;24.920;2023-02-18T15:46:54;11.93;;;6.18;;
70122;SDS011;57489;37.404;24.920;2023-02-18T15:51:59;12.27;;;5.90;;
70122;SDS011;57489;37.404;24.920;2023-02-18T15:57:01;15.30;;;6.37;;
70122;SDS011;57489;37.404;24.920;2023-02-18T16:07:36;12.00;;;5.95;;
70122;SDS011;57489;37.404;24.920;2023-02-18T16:12:51;10.70;;;5.70;;
70122;SDS011;57489;37.404;24.920;2023-02-18T16:17:54;13.27;;;5.38;;
70122;SDS011;57489;37.404;24.920;2023-02-18T16:22:57;8.83;;;4.90;;
70122;SDS011;57489;37.404;24.920;2023-02-18T16:33:00;11.57;;;4.87;;
70122;SDS011;57489;37.404;24.920;2023-02-18T16:38:00;10.90;;;5.03;;
70122;SDS011;57489;37.404;24.920;2023-02-18T16:43:05;9.07;;;4.30;;
70122;SDS011;57489;37.404;24.920;2023-02-18T16:48:14;9.17;;;5.23;;
70122;SDS011;57489;37.404;24.920;2023-02-18T16:53:18;8.52;;;4.22;;
70122;SDS011;57489;37.404;24.920;2023-02-18T16:58:19;11.23;;;5.07;;
70122;SDS011;57489;37.404;24.920;2023-02-18T17:03:19;10.17;;;4.77;;
70122;SDS011;57489;37.404;24.920;2023-02-18T17:08:21;10.73;;;5.40;;
70122;SDS011;57489;37.404;24.920;2023-02-18T17:13:23;11.20;;;5.27;;
70122;SDS011;57489;37.404;24.920;2023-02-18T17:18:28;11.27;;;5.03;;
70122;SDS011;57489;37.404;24.920;2023-02-18T17:23:28;10.43;;;5.10;;
70122;SDS011;57489;37.404;24.920;2023-02-18T17:28:28;10.87;;;5.07;;
70122;SDS011;57489;37.404;24.920;2023-02-18T17:33:29;12.60;;;5.37;;
70122;SDS011;57489;37.404;24.920;2023-02-18T17:38:29;11.93;;;5.83;;
70122;SDS011;57489;37.404;24.920;2023-02-18T17:43:32;11.13;;;4.70;;
70122;SDS011;57489;37.404;24.920;2023-02-18T17:48:32;10.73;;;5.30;;
70122;SDS011;57489;37.404;24.920;2023-02-18T17:53:34;12.57;;;5.77;;
70122;SDS011;57489;37.404;24.920;2023-02-18T17:58:34;9.50;;;4.90;;
70122;SDS011;57489;37.404;24.920;2023-02-18T18:03:35;8.70;;;4.73;;
70122;SDS011;57489;37.404;24.920;2023-02-18T18:08:35;12.30;;;4.90;;
70122;SDS011;57489;37.404;24.920;2023-02-18T18:13:36;13.73;;;4.80;;
70122;SDS011;57489;37.404;24.920;2023-02-18T18:18:36;9.30;;;4.87;;
70122;SDS011;57489;37.404;24.920;2023-02-18T18:23:37;10.33;;;5.77;;
70122;SDS011;57489;37.404;24.920;2023-02-18T18:28:37;13.57;;;5.33;;
70122;SDS011;57489;37.404;24.920;2023-02-18T18:33:38;11.27;;;5.53;;
70122;SDS011;57489;37.404;24.920;2023-02-18T18:38:39;10.07;;;5.93;;
70122;SDS011;57489;37.404;24.920;2023-02-18T18:43:39;8.97;;;4.67;;
70122;SDS011;57489;37.404;24.920;2023-02-18T18:48:40;10.13;;;5.10;;
70122;SDS011;57489;37.404;24.920;2023-02-18T18:53:40;11.77;;;4.83;;
70122;SDS011;57489;37.404;24.920;2023-02-18T18:58:41;10.67;;;5.50;;
70122;SDS011;57489;37.404;24.920;2023-02-18T19:03:41;9.63;;;4.80;;
70122;SDS011;57489;37.404;24.920;2023-02-18T19:08:44;10.30;;;4.70;;
70122;SDS011;57489;37.404;24.920;2023-02-18T19:13:44;11.90;;;5.40;;
70122;SDS011;57489;37.404;24.920;2023-02-18T19:18:45;18.70;;;6.53;;
70122;SDS011;57489;37.404;24.920;2023-02-18T19:23:46;13.77;;;6.57;;
70122;SDS011;57489;37.404;24.920;2023-02-18T19:28:46;16.60;;;7.13;;
70122;SDS011;57489;37.404;24.920;2023-02-18T19:33:47;15.90;;;7.23;;
70122;SDS011;57489;37.404;24.920;2023-02-18T19:38:47;18.67;;;7.47;;
70122;SDS011;57489;37.404;24.920;2023-02-18T19:43:48;16.50;;;6.67;;
70122;SDS011;57489;37.404;24.920;2023-02-18T19:48:49;19.77;;;6.57;;
70122;SDS011;57489;37.404;24.920;2023-02-18T19:53:50;12.63;;;6.67;;
70122;SDS011;57489;37.404;24.920;2023-02-18T19:58:53;12.57;;;5.93;;
70122;SDS011;57489;37.404;24.920;2023-02-18T20:03:54;16.97;;;6.60;;
70122;SDS011;57489;37.404;24.920;2023-02-18T20:08:54;17.57;;;6.13;;
70122;SDS011;57489;37.404;24.920;2023-02-18T20:13:55;14.23;;;5.83;;
70122;SDS011;57489;37.404;24.920;2023-02-18T20:18:56;12.30;;;5.40;;
70122;SDS011;57489;37.404;24.920;2023-02-18T20:23:56;11.17;;;5.30;;
70122;SDS011;57489;37.404;24.920;2023-02-18T20:28:57;12.45;;;5.72;;
70122;SDS011;57489;37.404;24.920;2023-02-18T20:33:58;10.77;;;4.87;;
70122;SDS011;57489;37.404;24.920;2023-02-18T20:38:58;11.20;;;5.40;;
70122;SDS011;57489;37.404;24.920;2023-02-18T20:43:59;12.03;;;5.43;;
70122;SDS011;57489;37.404;24.920;2023-02-18T20:49:00;11.65;;;5.10;;
70122;SDS011;57489;37.404;24.920;2023-02-18T20:54:07;10.57;;;4.93;;
70122;SDS011;57489;37.404;24.920;2023-02-18T20:59:11;14.65;;;4.78;;
70122;SDS011;57489;37.404;24.920;2023-02-18T21:04:14;11.03;;;5.07;;
70122;SDS011;57489;37.404;24.920;2023-02-18T21:09:16;12.30;;;5.03;;
70122;SDS011;57489;37.404;24.920;2023-02-18T21:14:17;9.73;;;4.57;;
70122;SDS011;57489;37.404;24.920;2023-02-18T21:19:17;12.37;;;4.97;;
70122;SDS011;57489;37.404;24.920;2023-02-18T21:24:18;9.40;;;4.20;;
70122;SDS011;57489;37.404;24.920;2023-02-18T21:29:18;9.83;;;4.53;;
70122;SDS011;57489;37.404;24.920;2023-02-18T21:34:19;12.60;;;4.87;;
70122;SDS011;57489;37.404;24.920;2023-02-18T21:39:19;7.93;;;3.47;;
70122;SDS011;57489;37.404;24.920;2023-02-18T21:44:19;10.53;;;4.83;;
70122;SDS011;57489;37.404;24.920;2023-02-18T21:49:20;10.10;;;4.53;;
70122;SDS011;57489;37.404;24.920;2023-02-18T21:54:22;11.17;;;4.53;;
70122;SDS011;57489;37.404;24.920;2023-02-18T21:59:25;10.60;;;4.07;;
70122;SDS011;57489;37.404;24.920;2023-02-18T22:04:27;12.20;;;4.40;;
70122;SDS011;57489;37.404;24.920;2023-02-18T22:09:29;10.07;;;4.20;;
70122;SDS011;57489;37.404;24.920;2023-02-18T22:14:29;8.73;;;3.80;;
70122;SDS011;57489;37.404;24.920;2023-02-18T22:19:30;11.77;;;4.30;;
70122;SDS011;57489;37.404;24.920;2023-02-18T22:24:31;9.35;;;4.55;;
70122;SDS011;57489;37.404;24.920;2023-02-18T22:29:35;9.30;;;3.83;;
70122;SDS011;57489;37.404;24.920;2023-02-18T22:34:35;8.73;;;4.23;;
70122;SDS011;57489;37.404;24.920;2023-02-18T22:39:36;9.98;;;3.95;;
70122;SDS011;57489;37.404;24.920;2023-02-18T22:44:36;9.00;;;4.33;;
70122;SDS011;57489;37.404;24.920;2023-02-18T22:49:37;9.30;;;4.60;;
70122;SDS011;57489;37.404;24.920;2023-02-18T22:54:37;8.00;;;3.73;;
70122;SDS011;57489;37.404;24.920;2023-02-18T22:59:38;9.70;;;4.50;;
70122;SDS011;57489;37.404;24.920;2023-02-18T23:04:38;9.37;;;3.63;;
70122;SDS011;57489;37.404;24.920;2023-02-18T23:09:38;7.53;;;4.10;;
70122;SDS011;57489;37.404;24.920;2023-02-18T23:14:39;7.20;;;4.30;;
70122;SDS011;57489;37.404;24.920;2023-02-18T23:19:41;9.23;;;4.13;;
70122;SDS011;57489;37.404;24.920;2023-02-18T23:24:45;7.30;;;3.80;;
70122;SDS011;57489;37.404;24.920;2023-02-18T23:29:46;10.27;;;4.13;;
70122;SDS011;57489;37.404;24.920;2023-02-18T23:34:47;7.80;;;4.00;;
70122;SDS011;57489;37.404;24.920;2023-02-18T23:39:49;7.10;;;3.83;;
70122;SDS011;57489;37.404;24.920;2023-02-18T23:44:49;10.53;;;4.23;;
70122;SDS011;57489;37.404;24.920;2023-02-18T23:49:49;8.77;;;3.97;;
70122;SDS011;57489;37.404;24.920;2023-02-18T23:54:50;6.97;;;3.67;;
70122;SDS011;57489;37.404;24.920;2023-02-18T23:59:50;8.27;;;3.90;;
